Dreyer, Texas
Current Conditions -  °F | °C
As of 6:15 PM on Wednesday 28 Jan 2015 (Local Time) from KT20 Reporting Station
Clear Clear  
Wind Chill: 70°   Ceiling: Unl
Heat Index: 70°   Visibility: 10mi
Dew Point: 44°   Wind: 6mph
Humidity: 39%   Direction: 160°SSE
Pressure: 30.09"   Gusts: NA
Location:  29.4258°N, 97.1461°W
Report Text: KT20 290015Z AUTO 16005KT 10SM CLR 21/07 A3009 RMK AO2 T02110068
Loading
Personal Weather Stations






























Interactive Weather Map New forecast layout! Learn more

10-Day Weather Forecast

Advertisements
Track Severe Weather on mobile